Share

Arvika, Sweden

4:31 PM CEST on April 23, 2014 (GMT +0200)
IVRMLAND3 Elev 453 ft | 59.73 °N, 13.06 °E | Change Station

Current weather conditions updated 1 minute ago

Clear
Clear
58.3 °F
Feels Like 58.3 °F
N
9.2
Wind Variable Wind from ENE
Gusts 13.6 mph
Sunrise 5:31 AM
Sunset 8:45 PM
Moon Waning Crescent

Tomorrow is forecast to be nearly the same temperature as today.

Pressure 30.42 in
Visibility -9999.0 miles
Clouds
Dew Point 29 °F
Humidity 33%
Rainfall 0.00 in
Snow Depth Not available.
UV Not available.
Pollen Not available.
Air Quality Not available.
Flu Activity Not available.
METAR ESOK 231420Z 05011KT CAVOK 14/M05 Q1030

More Conditions Fewer Conditions

Pressure 30.42 in
Visibility -9999.0 miles
Clouds
Dew Point 29 °F
Humidity 33%
Rainfall 0.00 in
Snow Depth Not available.
UV Not available.
Pollen Not available.
Air Quality Not available.
Flu Activity Not available.
METAR ESOK 231420Z 05011KT CAVOK 14/M05 Q1030

More Conditions Fewer Conditions

10-Day Weather Forecast

Almanac

Astronomy

Apr. 23, 2014 Rise Set
Actual Time 5:31 AM CEST 8:45 PM CEST
Civil Twilight 4:43 AM CEST 9:34 PM CEST
Nautical Twilight 3:35 AM CEST 10:43 PM CEST
Astronomical Twilight 1:40 AM CEST 12:35 AM CEST
Moon 3:26 AM CEST 1:04 PM CEST
Length of Visible Light 16h 51m
Length of Day
15h 14m
Tomorrow will be 5m 15s longer.
Waning Crescent, 36% of the Moon is Illuminated
Today
Waning Crescent
Apr 29
New
May 6
First Quarter
May 14
Full
May 21
Last Quarter

Today's Extremes

Country Highs Country Lows

Community

  • spring flowers
    spring flowers
  • Earth Day Spectrum Ove' Blue
    Earth Day Spectrum Ove' Blue
  • BARN B&W
    BARN B&W
  • April Sunset
    April Sunset
  • Waiting..
    Waiting..

WunderPhotos

Upload Photos

1,704,296 photos uploaded!

Nearby

Snow Depth

Not available.

Coastal Water Temperatures

Place Temperature
No Stations Reporting

Earthquake Activity

City Distance Mag. Time & Date
No recent earthquake activity has been reported nearby.
Minimum magnitude displayed is 2.5.

Nearby Weather Stations

Station Location Temp. Dew Point Humidity Wind Precip. Elev Updated Type
Vastra Amtervik 58.3 °F 29 °F 33% ENE  at  9.2 mph 0.00 in / hr 453 ft 4:29 PM CEST Normal
Lantbruksområde, V�rmlands L�n 56.8 °F 30 °F 36% SSE  at  4.0 mph 0.00 in / hr 341 ft 4:29 PM CEST Normal

Show More Stations Show Fewer Stations

What do you think?

We're not finished. Please let us know what you like, what you don't like, and what you are still missing.